»·PEaware :: BISON14 KEND-KEND

BISON14 :: KEND-KEND

FLIGHT INFORMATION

Flight Status: Arrived
Operator: Unknown
More flights by this operator :: More flights under this callsign
Pilot: Jordan C. (21690)
Aircraft: BEECH AIRCRAFT T-6A TEXAN
(TEX2)
More flights by this aircraft type
Origin: KEND Vance AFB
United States
Destination: KEND Vance AFB
United States
More flights between these airports :: More routes between these airports
Route: +DF NH
File this flight plan on PilotEdge
Remarks:
Altitude:
(Current/Filed)
0ft
Speed:
(Current/Filed)
0kts
Departed: 26-Mar-20 10:13 AM
Arrived: 26-Mar-20 10:56 AM
Distance/Time
Traveled:
0nm/0:43
Distance/Time
To Go:
Arrived

Flight Plot

Page will automatically refresh every two minutes.


Map Options




Map Legend


Flown Route
Filed Route
Departure Airport
Arrival Airport
Navaid (VOR, NDB)
Fix

Horizontal Profiles

Position Reports

Time Latitude Longitude Heading Altitude Ground
Speed
26-Mar-20 10:03 36.346971 -97.909990 216 1279ft 0kts
26-Mar-20 10:04 36.346971 -97.909990 216 1279ft 0kts
26-Mar-20 10:05 36.346971 -97.909990 216 1279ft 0kts
26-Mar-20 10:06 36.346954 -97.909999 197 1279ft 0kts
26-Mar-20 10:07 36.346954 -97.909999 197 1279ft 0kts
26-Mar-20 10:08 36.346954 -97.909999 197 1279ft 0kts
26-Mar-20 10:09 36.346954 -97.909999 197 1279ft 0kts
26-Mar-20 10:10 36.346954 -97.909999 197 1279ft 0kts
26-Mar-20 10:11 36.346762 -97.910300 264 1279ft 0kts
26-Mar-20 10:12 36.331905 -97.910930 181 1636ft 147kts
26-Mar-20 10:13 36.277176 -97.907793 176 2771ft 225kts
26-Mar-20 10:14 36.227117 -97.883268 51 3996ft 224kts
26-Mar-20 10:15 36.287851 -97.882222 348 5086ft 235kts
26-Mar-20 10:16 36.355609 -97.895639 346 5053ft 254kts
26-Mar-20 10:17 36.422701 -97.911844 358 5101ft 248kts
26-Mar-20 10:18 36.492610 -97.906074 2 4989ft 254kts
26-Mar-20 10:19 36.562626 -97.897646 4 4963ft 254kts
26-Mar-20 10:20 36.632893 -97.891195 2 4958ft 254kts
26-Mar-20 10:21 36.704187 -97.884208 1 2937ft 265kts
26-Mar-20 10:22 36.738630 -97.930643 269 2273ft 229kts
26-Mar-20 10:23 36.739509 -98.006766 270 2373ft 202kts
26-Mar-20 10:24 36.774419 -98.062642 319 2495ft 222kts
26-Mar-20 10:25 36.832936 -98.056118 338 2078ft 233kts
26-Mar-20 10:26 36.829248 -98.114331 198 1855ft 166kts
26-Mar-20 10:27 36.791267 -98.123521 176 1820ft 117kts
26-Mar-20 10:28 36.758305 -98.122750 181 1679ft 111kts
26-Mar-20 10:29 36.726925 -98.124001 182 1404ft 160kts
26-Mar-20 10:30 36.752047 -98.114925 317 2090ft 133kts
26-Mar-20 10:31 36.722415 -98.124410 181 1298ft 182kts
26-Mar-20 10:32 36.707002 -98.070963 82 2299ft 246kts
26-Mar-20 10:33 36.746955 -98.021956 352 4354ft 226kts
26-Mar-20 10:34 36.807368 -98.017384 356 7106ft 228kts
26-Mar-20 10:35 36.842917 -98.079855 272 8245ft 261kts
26-Mar-20 10:36 36.842649 -98.165746 296 9704ft 248kts
26-Mar-20 10:37 36.857679 -98.256442 273 9947ft 246kts
26-Mar-20 10:38 36.862531 -98.335877 277 9700ft 224kts
26-Mar-20 10:39 36.893793 -98.333574 115 9095ft 227kts
26-Mar-20 10:40 36.892551 -98.251032 80 7783ft 249kts
26-Mar-20 10:41 36.867533 -98.162081 137 6146ft 296kts
26-Mar-20 10:42 36.807178 -98.108474 156 5918ft 234kts
26-Mar-20 10:43 36.744992 -98.077792 167 6532ft 253kts
26-Mar-20 10:44 36.674957 -98.053090 161 6021ft 249kts
26-Mar-20 10:45 36.647644 -97.987046 84 5975ft 264kts
26-Mar-20 10:46 36.662996 -97.901265 85 5895ft 259kts
26-Mar-20 10:47 36.665381 -97.810142 115 5995ft 266kts
26-Mar-20 10:48 36.597729 -97.800808 184 3616ft 242kts
26-Mar-20 10:49 36.537449 -97.805530 230 2704ft 228kts
26-Mar-20 10:50 36.494247 -97.863754 225 2349ft 223kts
26-Mar-20 10:51 36.447513 -97.908467 183 2255ft 235kts
26-Mar-20 10:52 36.384992 -97.908962 184 2297ft 212kts
26-Mar-20 10:53 36.340623 -97.899654 26 2170ft 163kts
26-Mar-20 10:54 36.346998 -97.910933 178 1294ft 101kts
26-Mar-20 10:55 36.334002 -97.909832 50 1291ft 17kts

Navigation Log

Ident Type
Flight plan parsing failed, navigation log unavailable